createdAt,value
2023-02-11T00:01:07.892Z,7.01
2023-02-11T00:03:36.355Z,7.04
2023-02-11T00:06:04.930Z,7.06
2023-02-11T00:08:32.045Z,7.01
2023-02-11T00:11:00.048Z,7.00
2023-02-11T00:13:30.787Z,7.04
2023-02-11T00:16:00.268Z,7.00
2023-02-11T00:18:27.810Z,7.03
2023-02-11T00:20:55.346Z,7.06
2023-02-11T00:23:22.056Z,6.99
2023-02-11T00:25:48.940Z,7.04
2023-02-11T00:28:16.016Z,6.99
2023-02-11T00:30:43.017Z,7.01
2023-02-11T00:33:10.369Z,6.99
2023-02-11T00:35:38.665Z,6.96
2023-02-11T00:38:07.182Z,7.07
2023-02-11T00:40:34.951Z,6.98
2023-02-11T00:43:02.416Z,6.99
2023-02-11T00:45:30.828Z,7.04
2023-02-11T00:47:57.925Z,6.98
2023-02-11T00:50:25.869Z,6.99
2023-02-11T00:52:54.266Z,6.95
2023-02-11T00:55:21.894Z,6.96
2023-02-11T00:57:49.320Z,7.00
2023-02-11T01:00:17.760Z,6.92
2023-02-11T01:02:44.607Z,6.99
2023-02-11T01:05:11.576Z,6.97
2023-02-11T01:07:39.004Z,6.97
2023-02-11T01:10:06.275Z,7.03
2023-02-11T01:12:36.287Z,6.91
2023-02-11T01:15:04.006Z,6.95
2023-02-11T01:17:30.761Z,6.93
2023-02-11T01:19:57.639Z,6.92
2023-02-11T01:22:25.014Z,6.97
2023-02-11T01:24:51.611Z,6.98
2023-02-11T01:27:19.637Z,6.89
2023-02-11T01:29:46.381Z,6.92
2023-02-11T01:32:13.274Z,6.92
2023-02-11T01:34:41.946Z,6.98
2023-02-11T01:37:09.894Z,6.88
2023-02-11T01:39:36.671Z,6.88
2023-02-11T01:42:03.855Z,6.90
2023-02-11T01:44:35.339Z,6.92
2023-02-11T01:47:04.846Z,6.93
2023-02-11T01:49:33.524Z,6.85
2023-02-11T01:52:14.896Z,6.90
2023-02-11T01:55:01.538Z,6.84
2023-02-11T01:57:30.919Z,6.84
2023-02-11T02:00:14.960Z,6.87
2023-02-11T02:02:46.635Z,6.82
2023-02-11T02:05:16.633Z,6.81
2023-02-11T02:07:52.656Z,6.76
2023-02-11T02:10:22.448Z,6.77
2023-02-11T02:12:50.244Z,6.74
2023-02-11T02:15:26.215Z,6.72
2023-02-11T02:17:59.021Z,6.74
2023-02-11T02:20:39.815Z,6.77
2023-02-11T02:23:15.946Z,6.73
2023-02-11T02:26:10.016Z,6.69
2023-02-11T02:29:08.882Z,6.72
2023-02-11T02:31:58.015Z,6.75
2023-02-11T02:34:48.865Z,6.75
2023-02-11T02:37:27.269Z,6.77
2023-02-11T02:39:57.471Z,6.82
2023-02-11T02:42:26.462Z,6.77
2023-02-11T02:44:55.885Z,6.73
2023-02-11T02:47:22.742Z,6.71
2023-02-11T02:49:49.889Z,6.73
2023-02-11T02:52:30.183Z,6.70
2023-02-11T02:55:00.549Z,6.67
2023-02-11T02:57:42.204Z,6.71
2023-02-11T03:00:08.809Z,6.70
2023-02-11T03:02:35.739Z,6.66
2023-02-11T03:05:06.385Z,6.66
2023-02-11T03:07:52.050Z,6.63
2023-02-11T03:10:45.898Z,6.68
2023-02-11T03:13:16.816Z,6.60
2023-02-11T03:15:46.155Z,6.59
2023-02-11T03:18:15.069Z,6.54
2023-02-11T03:20:43.418Z,6.61
2023-02-11T03:23:13.815Z,6.54
2023-02-11T03:25:45.717Z,6.55
2023-02-11T03:28:15.692Z,6.60
2023-02-11T03:30:47.095Z,6.53
2023-02-11T03:33:21.721Z,6.56
2023-02-11T03:36:00.436Z,6.55
2023-02-11T03:38:32.451Z,6.54
2023-02-11T03:41:01.820Z,6.48
2023-02-11T03:43:34.098Z,6.47
2023-02-11T03:46:02.241Z,6.44
2023-02-11T03:48:36.429Z,6.47
2023-02-11T03:51:06.937Z,6.44
2023-02-11T03:53:35.013Z,6.47
2023-02-11T03:56:05.072Z,6.50
2023-02-11T03:58:32.213Z,6.49
2023-02-11T04:00:59.302Z,6.49
2023-02-11T04:03:26.075Z,6.44
2023-02-11T04:05:53.105Z,6.42
2023-02-11T04:08:20.622Z,6.43
2023-02-11T04:10:48.093Z,6.41
2023-02-11T04:13:15.797Z,6.38
2023-02-11T04:15:42.943Z,6.35
2023-02-11T04:18:10.484Z,6.28
2023-02-11T04:20:38.007Z,6.36
2023-02-11T04:23:05.060Z,6.28
2023-02-11T04:25:31.987Z,6.25
2023-02-11T04:27:58.963Z,6.28
2023-02-11T04:30:25.765Z,6.27
2023-02-11T04:32:54.247Z,6.25
2023-02-11T04:35:21.238Z,6.23
2023-02-11T04:37:48.428Z,6.26
2023-02-11T04:40:16.720Z,6.25
2023-02-11T04:42:44.577Z,6.24
2023-02-11T04:45:11.484Z,6.26
2023-02-11T04:47:38.752Z,6.24
2023-02-11T04:50:06.427Z,6.25
2023-02-11T04:52:34.864Z,6.23
2023-02-11T04:55:02.194Z,6.24
2023-02-11T04:57:29.964Z,6.19
2023-02-11T04:59:56.932Z,6.13
2023-02-11T05:02:23.705Z,6.11
2023-02-11T05:04:50.888Z,6.10
2023-02-11T05:07:18.274Z,6.11
2023-02-11T05:09:45.696Z,6.13
2023-02-11T05:12:12.731Z,6.11
2023-02-11T05:14:40.202Z,6.09
2023-02-11T05:17:07.427Z,6.07
2023-02-11T05:19:34.865Z,6.08
2023-02-11T05:22:03.337Z,6.08
2023-02-11T05:24:31.715Z,6.06
2023-02-11T05:26:58.646Z,6.10
2023-02-11T05:29:25.404Z,6.11
2023-02-11T05:31:52.575Z,6.12
2023-02-11T05:34:19.689Z,6.13
2023-02-11T05:36:46.628Z,6.13
2023-02-11T05:39:14.081Z,6.13
2023-02-11T05:41:41.323Z,6.10
2023-02-11T05:44:08.694Z,6.08
2023-02-11T05:46:35.443Z,6.11
2023-02-11T05:49:02.638Z,6.09
2023-02-11T05:51:29.429Z,6.15
2023-02-11T05:53:56.496Z,6.10
2023-02-11T05:56:23.441Z,6.13
2023-02-11T05:58:50.491Z,6.18
2023-02-11T06:01:17.285Z,6.12
2023-02-11T06:03:43.999Z,6.12
2023-02-11T06:06:11.842Z,6.12
2023-02-11T06:08:39.465Z,6.13
2023-02-11T06:11:06.654Z,6.22
2023-02-11T06:13:33.744Z,6.21
2023-02-11T06:16:02.187Z,6.22
2023-02-11T06:18:29.569Z,6.21
2023-02-11T06:20:56.675Z,6.23
2023-02-11T06:23:23.325Z,6.19
2023-02-11T06:25:50.668Z,6.19
2023-02-11T06:28:17.653Z,6.24
2023-02-11T06:30:44.619Z,6.17
2023-02-11T06:33:11.847Z,6.25
2023-02-11T06:35:39.508Z,6.23
2023-02-11T06:38:06.466Z,6.22
2023-02-11T06:40:33.759Z,6.25
2023-02-11T06:43:00.995Z,6.22
2023-02-11T06:45:28.559Z,6.22
2023-02-11T06:47:55.123Z,6.21
2023-02-11T06:50:22.460Z,6.25
2023-02-11T06:52:49.472Z,6.27
2023-02-11T06:55:16.983Z,6.29
2023-02-11T06:57:43.880Z,6.28
2023-02-11T07:00:10.749Z,6.25
2023-02-11T07:02:38.158Z,6.34
2023-02-11T07:05:06.242Z,6.33
2023-02-11T07:07:34.291Z,6.28
2023-02-11T07:10:03.210Z,6.33
2023-02-11T07:12:30.936Z,6.35
2023-02-11T07:14:58.343Z,6.37
2023-02-11T07:17:25.584Z,6.34
2023-02-11T07:19:52.918Z,6.36
2023-02-11T07:22:19.756Z,6.36
2023-02-11T07:24:47.519Z,6.37
2023-02-11T07:27:14.202Z,6.38
2023-02-11T07:29:41.915Z,6.39
2023-02-11T07:32:09.007Z,6.35
2023-02-11T07:34:37.087Z,6.33
2023-02-11T07:37:04.307Z,6.34
2023-02-11T07:39:31.439Z,6.33
2023-02-11T07:41:58.461Z,6.38
2023-02-11T07:44:25.658Z,6.42
2023-02-11T07:46:53.272Z,6.41
2023-02-11T07:49:20.154Z,6.40
2023-02-11T07:51:49.018Z,6.35
2023-02-11T07:54:15.991Z,6.39
2023-02-11T07:56:42.641Z,6.39
2023-02-11T07:59:10.563Z,6.44
2023-02-11T08:01:38.577Z,6.47
2023-02-11T08:04:05.635Z,6.51
2023-02-11T08:06:34.302Z,6.56
2023-02-11T08:09:07.864Z,6.60
2023-02-11T08:11:35.799Z,6.59
2023-02-11T08:14:02.734Z,6.53
2023-02-11T08:16:31.004Z,6.56
2023-02-11T08:18:59.728Z,6.56
2023-02-11T08:21:27.408Z,6.56
2023-02-11T08:23:54.079Z,6.59
2023-02-11T08:26:23.018Z,6.65
2023-02-11T08:28:50.828Z,6.65
2023-02-11T08:31:18.580Z,6.65
2023-02-11T08:33:46.613Z,6.67
2023-02-11T08:36:15.317Z,6.66
2023-02-11T08:38:42.289Z,6.71
2023-02-11T08:41:09.476Z,6.65
2023-02-11T08:43:36.756Z,6.67
2023-02-11T08:46:03.910Z,6.68
2023-02-11T08:48:31.414Z,6.76
2023-02-11T08:50:58.475Z,6.77
2023-02-11T08:53:26.326Z,6.77
2023-02-11T08:55:53.886Z,6.71
2023-02-11T08:58:21.241Z,6.79
2023-02-11T09:00:49.552Z,6.78
2023-02-11T09:03:17.360Z,6.88
2023-02-11T09:05:45.689Z,6.88
2023-02-11T09:08:12.933Z,6.98
2023-02-11T09:10:40.175Z,7.03
2023-02-11T09:13:07.099Z,7.00
2023-02-11T09:15:34.811Z,7.04
2023-02-11T09:18:01.847Z,7.05
2023-02-11T09:20:29.022Z,6.97
2023-02-11T09:22:57.390Z,7.04
2023-02-11T09:25:24.616Z,7.09
2023-02-11T09:27:52.349Z,7.06
2023-02-11T09:30:19.591Z,7.09
2023-02-11T09:32:46.527Z,7.14
2023-02-11T09:35:13.748Z,7.21
2023-02-11T09:37:40.619Z,7.20
2023-02-11T09:40:07.605Z,7.15
2023-02-11T09:51:34.451Z,7.26
2023-02-11T09:54:05.984Z,7.37
2023-02-11T09:56:33.361Z,7.41
2023-02-11T09:59:00.909Z,7.37
2023-02-11T10:01:38.723Z,7.40
2023-02-11T10:04:14.713Z,7.47
2023-02-11T10:07:04.825Z,7.53
2023-02-11T10:09:34.328Z,7.55
2023-02-11T10:12:01.222Z,7.61
2023-02-11T10:14:47.787Z,7.64
2023-02-11T10:17:32.593Z,7.63
2023-02-11T10:20:26.839Z,7.66
2023-02-11T10:22:54.418Z,7.71
2023-02-11T10:25:26.055Z,7.78
2023-02-11T10:27:55.375Z,7.67
2023-02-11T10:30:31.132Z,7.69
2023-02-11T10:33:01.166Z,7.66
2023-02-11T10:35:28.035Z,7.65
2023-02-11T10:37:55.767Z,7.61
2023-02-11T10:40:24.411Z,7.65
2023-02-11T10:42:55.479Z,7.64
2023-02-11T10:45:25.347Z,7.68
2023-02-11T10:47:52.654Z,7.65
2023-02-11T10:50:21.086Z,7.68
2023-02-11T10:52:48.158Z,7.75
2023-02-11T10:55:16.544Z,7.71
2023-02-11T10:57:50.514Z,7.76
2023-02-11T11:00:17.563Z,7.77
2023-02-11T11:02:44.754Z,7.78
2023-02-11T11:05:16.748Z,7.90
2023-02-11T11:07:52.657Z,7.84
2023-02-11T11:10:37.074Z,7.77
2023-02-11T11:13:03.950Z,7.88
2023-02-11T11:15:32.134Z,7.87
2023-02-11T11:18:28.631Z,7.94
2023-02-11T11:20:55.882Z,8.12
2023-02-11T11:23:24.759Z,8.08
2023-02-11T11:26:00.613Z,8.11
2023-02-11T11:28:29.081Z,8.01
2023-02-11T11:30:56.946Z,7.94
2023-02-11T11:33:28.958Z,7.97
2023-02-11T11:35:57.889Z,8.02
2023-02-11T11:38:25.454Z,8.06
2023-02-11T11:41:10.466Z,8.11
2023-02-11T11:43:37.797Z,8.15
2023-02-11T11:46:07.201Z,8.14
2023-02-11T11:48:50.081Z,8.19
2023-02-11T11:51:17.556Z,8.20
2023-02-11T11:53:50.245Z,8.15
2023-02-11T11:56:32.356Z,8.18
2023-02-11T11:59:17.094Z,8.24
2023-02-11T12:01:47.229Z,8.31
2023-02-11T12:04:24.192Z,8.24
2023-02-11T12:07:00.144Z,8.28
2023-02-11T12:09:46.441Z,8.29
2023-02-11T12:12:32.672Z,8.32
2023-02-11T12:15:15.416Z,8.32
2023-02-11T12:17:48.648Z,8.32
2023-02-11T12:20:18.061Z,8.32
2023-02-11T12:23:00.402Z,8.29
2023-02-11T12:25:37.587Z,8.34
2023-02-11T12:28:04.540Z,8.25
2023-02-11T12:30:43.906Z,8.26
2023-02-11T12:33:17.775Z,8.28
2023-02-11T12:35:57.655Z,8.34
2023-02-11T12:38:24.251Z,8.38
2023-02-11T12:40:59.207Z,8.34
2023-02-11T12:43:28.780Z,8.43
2023-02-11T12:46:03.869Z,8.41
2023-02-11T12:48:30.773Z,8.45
2023-02-11T12:51:01.542Z,8.48
2023-02-11T12:53:28.498Z,8.47
2023-02-11T12:55:59.286Z,8.50
2023-02-11T12:58:44.196Z,8.45
2023-02-11T13:01:17.412Z,8.54
2023-02-11T13:03:50.426Z,8.52
2023-02-11T13:06:37.359Z,8.61
2023-02-11T13:09:06.078Z,8.64
2023-02-11T13:11:39.421Z,8.65
2023-02-11T13:14:14.048Z,8.74
2023-02-11T13:16:42.793Z,8.76
2023-02-11T13:19:13.098Z,8.84
2023-02-11T13:21:58.694Z,8.85
2023-02-11T13:24:25.666Z,8.88
2023-02-11T13:27:18.759Z,8.88
2023-02-11T13:30:05.168Z,8.89
2023-02-11T13:32:51.252Z,8.85
2023-02-11T13:35:28.116Z,8.96
2023-02-11T13:37:55.818Z,9.09
2023-02-11T13:40:23.585Z,8.97
2023-02-11T13:42:52.329Z,8.87
2023-02-11T13:45:28.636Z,8.94
2023-02-11T13:48:02.926Z,8.81
2023-02-11T13:50:32.529Z,8.80
2023-02-11T13:53:01.356Z,8.86
2023-02-11T13:55:29.290Z,8.85
2023-02-11T13:58:08.294Z,8.84
2023-02-11T14:00:34.973Z,8.89
2023-02-11T14:03:29.811Z,8.94
2023-02-11T14:06:27.971Z,8.92
2023-02-11T14:09:09.800Z,9.01
2023-02-11T14:11:56.201Z,9.03
2023-02-11T14:14:28.002Z,9.13
2023-02-11T14:17:00.446Z,9.26
2023-02-11T14:19:32.006Z,9.27
2023-02-11T14:22:03.757Z,9.31
2023-02-11T14:24:31.194Z,9.41
2023-02-11T14:27:11.299Z,9.44
2023-02-11T14:29:40.964Z,9.61
2023-02-11T14:32:08.379Z,9.76
2023-02-11T14:34:41.200Z,9.79
2023-02-11T14:37:20.204Z,9.90
2023-02-11T14:39:54.664Z,9.85
2023-02-11T14:42:23.245Z,9.88
2023-02-11T14:44:51.545Z,9.78
2023-02-11T14:47:20.925Z,9.72
2023-02-11T14:49:48.704Z,9.66
2023-02-11T14:52:34.400Z,9.48
2023-02-11T14:55:17.978Z,9.48
2023-02-11T14:57:45.754Z,9.44
2023-02-11T15:00:21.188Z,9.35
2023-02-11T15:02:48.400Z,9.38
2023-02-11T15:05:29.032Z,9.39
2023-02-11T15:07:59.670Z,9.35
2023-02-11T15:10:26.820Z,9.35
2023-02-11T15:12:53.973Z,9.31
2023-02-11T15:15:20.783Z,9.29
2023-02-11T15:17:47.583Z,9.28
2023-02-11T15:20:24.557Z,9.30
2023-02-11T15:22:54.347Z,9.30
2023-02-11T15:25:22.873Z,9.33
2023-02-11T15:27:51.276Z,9.33
2023-02-11T15:30:24.245Z,9.30
2023-02-11T15:32:59.271Z,9.30
2023-02-11T15:35:28.644Z,9.28
2023-02-11T15:37:57.299Z,9.37
2023-02-11T15:40:27.873Z,9.31
2023-02-11T15:43:04.602Z,9.27
2023-02-11T15:45:53.859Z,9.29
2023-02-11T15:48:38.583Z,9.31
2023-02-11T15:51:12.578Z,9.34
2023-02-11T15:53:43.317Z,9.32
2023-02-11T15:56:13.469Z,9.22
2023-02-11T15:58:41.579Z,9.23
2023-02-11T16:01:08.957Z,9.21
2023-02-11T16:03:35.733Z,9.15
2023-02-11T16:06:39.343Z,9.13
2023-02-11T16:09:21.769Z,9.14
2023-02-11T16:11:48.858Z,9.12
2023-02-11T16:14:36.958Z,9.14
2023-02-11T16:17:22.301Z,9.11
2023-02-11T16:19:50.867Z,9.12
2023-02-11T16:22:22.567Z,9.18
2023-02-11T16:24:52.515Z,9.13
2023-02-11T16:27:25.334Z,9.12
2023-02-11T16:29:52.267Z,9.12
2023-02-11T16:32:20.134Z,9.09
2023-02-11T16:34:47.272Z,9.09
2023-02-11T16:37:16.494Z,9.06
2023-02-11T16:39:43.668Z,9.02
2023-02-11T16:42:13.606Z,8.98
2023-02-11T16:44:41.307Z,8.97
2023-02-11T16:47:23.691Z,8.99
2023-02-11T16:49:50.823Z,8.98
2023-02-11T16:52:18.208Z,8.93
2023-02-11T16:54:45.872Z,8.93
2023-02-11T16:57:17.207Z,8.96
2023-02-11T16:59:44.839Z,9.02
2023-02-11T17:02:24.353Z,8.96
2023-02-11T17:04:54.485Z,8.93
2023-02-11T17:07:21.540Z,8.91
2023-02-11T17:09:48.162Z,8.92
2023-02-11T17:12:15.227Z,8.92
2023-02-11T17:14:41.810Z,8.89
2023-02-11T17:17:09.729Z,8.87
2023-02-11T17:19:37.113Z,8.89
2023-02-11T17:22:04.833Z,8.99
2023-02-11T17:24:31.767Z,8.94
2023-02-11T17:26:58.785Z,8.90
2023-02-11T17:29:26.087Z,8.88
2023-02-11T17:31:53.726Z,8.93
2023-02-11T17:34:21.415Z,8.86
2023-02-11T17:36:48.658Z,8.85
2023-02-11T17:39:16.284Z,8.85
2023-02-11T17:41:43.555Z,8.88
2023-02-11T17:44:12.214Z,8.81
2023-02-11T17:46:39.161Z,8.81
2023-02-11T17:49:06.511Z,8.83
2023-02-11T17:51:34.592Z,8.88
2023-02-11T17:54:06.691Z,8.83
2023-02-11T17:56:35.421Z,8.80
2023-02-11T17:59:02.952Z,8.83
2023-02-11T18:01:31.446Z,8.82
2023-02-11T18:03:58.192Z,8.77
2023-02-11T18:06:25.156Z,8.81
2023-02-11T18:08:52.166Z,8.81
2023-02-11T18:11:19.308Z,8.79
2023-02-11T18:13:51.362Z,8.70
2023-02-11T18:16:19.143Z,8.71
2023-02-11T18:18:45.684Z,8.65
2023-02-11T18:21:13.931Z,8.61
2023-02-11T18:23:40.792Z,8.61
2023-02-11T18:26:08.616Z,8.59
2023-02-11T18:28:35.932Z,8.57
2023-02-11T18:31:03.363Z,8.57
2023-02-11T18:33:33.316Z,8.55
2023-02-11T18:36:04.591Z,8.54
2023-02-11T18:38:32.072Z,8.52
2023-02-11T18:40:59.098Z,8.50
2023-02-11T18:43:26.007Z,8.53
2023-02-11T18:45:53.868Z,8.48
2023-02-11T18:48:21.393Z,8.46
2023-02-11T18:50:48.368Z,8.50
2023-02-11T18:53:16.027Z,8.49
2023-02-11T18:55:44.092Z,8.46
2023-02-11T18:58:11.271Z,8.48
2023-02-11T19:00:39.932Z,8.49
2023-02-11T19:03:06.758Z,8.49
2023-02-11T19:05:54.627Z,8.50
2023-02-11T19:08:21.453Z,8.45
2023-02-11T19:10:49.328Z,8.46
2023-02-11T19:13:16.233Z,8.50
2023-02-11T19:15:43.881Z,8.44
2023-02-11T19:18:11.854Z,8.43
2023-02-11T19:20:42.914Z,8.46
2023-02-11T19:23:10.006Z,8.43
2023-02-11T19:25:37.170Z,8.43
2023-02-11T19:28:03.979Z,8.40
2023-02-11T19:30:31.362Z,8.41
2023-02-11T19:32:58.328Z,8.45
2023-02-11T19:35:25.513Z,8.45
2023-02-11T19:37:52.089Z,8.37
2023-02-11T19:40:21.401Z,8.37
2023-02-11T19:42:48.251Z,8.37
2023-02-11T19:45:15.894Z,8.37
2023-02-11T19:47:42.722Z,8.40
2023-02-11T19:50:09.626Z,8.37
2023-02-11T19:52:40.343Z,8.39
2023-02-11T19:55:07.492Z,8.36
2023-02-11T19:57:34.337Z,8.36
2023-02-11T20:00:01.386Z,8.35
2023-02-11T20:02:29.262Z,8.33
2023-02-11T20:04:56.870Z,8.31
2023-02-11T20:07:24.269Z,8.34
2023-02-11T20:09:53.578Z,8.35
2023-02-11T20:12:20.522Z,8.32
2023-02-11T20:14:47.217Z,8.30
2023-02-11T20:17:14.586Z,8.31
2023-02-11T20:19:41.182Z,8.30
2023-02-11T20:22:08.307Z,8.29
2023-02-11T20:24:35.613Z,8.28
2023-02-11T20:27:02.375Z,8.30
2023-02-11T20:29:31.196Z,8.30
2023-02-11T20:31:58.120Z,8.27
2023-02-11T20:34:25.471Z,8.27
2023-02-11T20:36:52.638Z,8.29
2023-02-11T20:39:22.147Z,8.28
2023-02-11T20:41:49.343Z,8.28
2023-02-11T20:44:15.811Z,8.27
2023-02-11T20:46:43.496Z,8.26
2023-02-11T20:49:11.402Z,8.24
2023-02-11T20:51:38.797Z,8.26
2023-02-11T20:54:06.282Z,8.22
2023-02-11T20:56:35.610Z,8.21
2023-02-11T20:59:03.823Z,8.25
2023-02-11T21:01:32.715Z,8.27
2023-02-11T21:04:19.728Z,8.27
2023-02-11T21:06:47.773Z,8.24
2023-02-11T21:09:16.531Z,8.27
2023-02-11T21:11:43.909Z,8.30
2023-02-11T21:14:12.049Z,8.29
2023-02-11T21:16:39.252Z,8.29
2023-02-11T21:19:06.389Z,8.28
2023-02-11T21:21:35.137Z,8.28
2023-02-11T21:24:01.870Z,8.25
2023-02-11T21:26:29.113Z,8.24
2023-02-11T21:28:56.032Z,8.24
2023-02-11T21:31:28.634Z,8.20
2023-02-11T21:33:55.579Z,8.21
2023-02-11T21:36:23.088Z,8.20
2023-02-11T21:38:50.112Z,8.25
2023-02-11T21:41:17.865Z,8.23
2023-02-11T21:43:44.580Z,8.21
2023-02-11T21:46:13.043Z,8.21
2023-02-11T21:48:39.824Z,8.21
2023-02-11T21:51:08.148Z,8.19
2023-02-11T21:53:35.374Z,8.21
2023-02-11T21:56:04.132Z,8.22
2023-02-11T21:58:31.712Z,8.24
2023-02-11T22:00:59.108Z,8.30
2023-02-11T22:03:25.874Z,8.23
2023-02-11T22:05:52.932Z,8.26
2023-02-11T22:08:20.359Z,8.19
2023-02-11T22:10:47.185Z,8.17
2023-02-11T22:13:13.742Z,8.20
2023-02-11T22:15:40.604Z,8.18
2023-02-11T22:18:07.520Z,8.17
2023-02-11T22:20:34.670Z,8.17
2023-02-11T22:23:01.872Z,8.15
2023-02-11T22:25:28.587Z,8.13
2023-02-11T22:27:55.319Z,8.15
2023-02-11T22:30:21.916Z,8.19
2023-02-11T22:32:48.657Z,8.20
2023-02-11T22:35:15.854Z,8.18
2023-02-11T22:37:42.789Z,8.19
2023-02-11T22:40:09.789Z,8.17
2023-02-11T22:42:39.158Z,8.16
2023-02-11T22:45:07.335Z,8.19
2023-02-11T22:47:34.456Z,8.17
2023-02-11T22:50:01.401Z,8.16
2023-02-11T22:52:28.595Z,8.16
2023-02-11T22:54:55.820Z,8.19
2023-02-11T22:57:22.544Z,8.20
2023-02-11T22:59:50.566Z,8.18
2023-02-11T23:02:17.550Z,8.20
2023-02-11T23:04:44.572Z,8.17
2023-02-11T23:07:11.645Z,8.16
2023-02-11T23:09:38.570Z,8.20
2023-02-11T23:12:05.298Z,8.21
2023-02-11T23:14:32.216Z,8.20
2023-02-11T23:16:59.313Z,8.21
2023-02-11T23:19:26.226Z,8.21
2023-02-11T23:21:53.517Z,8.21
2023-02-11T23:24:20.633Z,8.24
2023-02-11T23:26:47.262Z,8.22
2023-02-11T23:29:14.484Z,8.25
2023-02-11T23:31:43.917Z,8.24
2023-02-11T23:34:11.070Z,8.24
2023-02-11T23:36:38.073Z,8.23
2023-02-11T23:39:05.590Z,8.19
2023-02-11T23:41:32.153Z,8.21
2023-02-11T23:43:59.333Z,8.19
2023-02-11T23:46:26.648Z,8.13
2023-02-11T23:48:53.480Z,8.13
2023-02-11T23:51:21.411Z,8.14
2023-02-11T23:53:49.724Z,8.17
2023-02-11T23:56:18.099Z,8.19
2023-02-11T23:58:48.153Z,8.20
